Plaza, North Dakota
Current Conditions -  °F | °C
As of 2:35 PM on Thursday 27 Nov 2014 (Local Time) from K08D Reporting Station
Light Snow Light Snow  
Wind Chill: -2°   Ceiling: 200
Heat Index: 14°   Visibility: 0.75mi
Dew Point: 14°   Wind: 16mph
Humidity: 100%   Direction: 110°ESE
Pressure: 29.92"   Gusts: 22mph
Location:  48.03°N, 101.96°W
Report Text: K08D 272035Z AUTO 11014G19KT 3/4SM -SN OVC002 M10/M10 A2992 RMK AO2 P0008
Loading
Personal Weather Stations






























Interactive Weather Map New forecast layout! Learn more

10-Day Weather Forecast

Advertisements
Track Severe Weather on mobile